sensor_id;sensor_type;location;lat;lon;timestamp;P1;durP1;ratioP1;P2;durP2;ratioP2
22937;SDS011;11634;42.734;23.298;2022-10-31T00:00:49;6.88;;;4.90;;
22937;SDS011;11634;42.734;23.298;2022-10-31T00:03:16;6.65;;;4.85;;
22937;SDS011;11634;42.734;23.298;2022-10-31T00:05:43;7.57;;;4.38;;
22937;SDS011;11634;42.734;23.298;2022-10-31T00:08:10;8.18;;;4.47;;
22937;SDS011;11634;42.734;23.298;2022-10-31T00:10:39;6.95;;;4.70;;
22937;SDS011;11634;42.734;23.298;2022-10-31T00:13:05;7.97;;;4.38;;
22937;SDS011;11634;42.734;23.298;2022-10-31T00:15:32;6.28;;;4.60;;
22937;SDS011;11634;42.734;23.298;2022-10-31T00:17:59;8.65;;;5.30;;
22937;SDS011;11634;42.734;23.298;2022-10-31T00:20:24;7.30;;;4.43;;
22937;SDS011;11634;42.734;23.298;2022-10-31T00:22:50;9.05;;;4.85;;
22937;SDS011;11634;42.734;23.298;2022-10-31T00:25:15;7.70;;;5.05;;
22937;SDS011;11634;42.734;23.298;2022-10-31T00:27:41;6.38;;;4.50;;
22937;SDS011;11634;42.734;23.298;2022-10-31T00:30:07;6.38;;;4.55;;
22937;SDS011;11634;42.734;23.298;2022-10-31T00:32:32;7.55;;;4.82;;
22937;SDS011;11634;42.734;23.298;2022-10-31T00:34:58;5.97;;;4.82;;
22937;SDS011;11634;42.734;23.298;2022-10-31T00:37:23;6.60;;;4.47;;
22937;SDS011;11634;42.734;23.298;2022-10-31T00:39:49;6.63;;;4.90;;
22937;SDS011;11634;42.734;23.298;2022-10-31T00:42:15;9.13;;;5.43;;
22937;SDS011;11634;42.734;23.298;2022-10-31T00:44:42;8.43;;;4.70;;
22937;SDS011;11634;42.734;23.298;2022-10-31T00:47:08;6.78;;;5.07;;
22937;SDS011;11634;42.734;23.298;2022-10-31T00:49:33;7.32;;;5.10;;
22937;SDS011;11634;42.734;23.298;2022-10-31T00:52:00;8.27;;;4.65;;
22937;SDS011;11634;42.734;23.298;2022-10-31T00:54:26;6.25;;;4.30;;
22937;SDS011;11634;42.734;23.298;2022-10-31T00:56:51;7.03;;;4.25;;
22937;SDS011;11634;42.734;23.298;2022-10-31T00:59:17;6.15;;;4.60;;
22937;SDS011;11634;42.734;23.298;2022-10-31T01:01:43;7.07;;;5.30;;
22937;SDS011;11634;42.734;23.298;2022-10-31T01:04:08;7.95;;;5.15;;
22937;SDS011;11634;42.734;23.298;2022-10-31T01:06:34;5.70;;;4.22;;
22937;SDS011;11634;42.734;23.298;2022-10-31T01:08:59;6.50;;;4.72;;
22937;SDS011;11634;42.734;23.298;2022-10-31T01:11:25;6.72;;;4.45;;
22937;SDS011;11634;42.734;23.298;2022-10-31T01:13:51;10.63;;;4.90;;
22937;SDS011;11634;42.734;23.298;2022-10-31T01:16:19;7.38;;;4.70;;
22937;SDS011;11634;42.734;23.298;2022-10-31T01:18:48;8.60;;;5.30;;
22937;SDS011;11634;42.734;23.298;2022-10-31T01:21:18;7.57;;;5.07;;
22937;SDS011;11634;42.734;23.298;2022-10-31T01:23:47;7.95;;;4.78;;
22937;SDS011;11634;42.734;23.298;2022-10-31T01:28:53;7.45;;;4.65;;
22937;SDS011;11634;42.734;23.298;2022-10-31T01:31:21;7.80;;;4.90;;
22937;SDS011;11634;42.734;23.298;2022-10-31T01:33:49;7.68;;;4.38;;
22937;SDS011;11634;42.734;23.298;2022-10-31T01:36:18;7.45;;;5.03;;
22937;SDS011;11634;42.734;23.298;2022-10-31T01:38:44;6.05;;;4.68;;
22937;SDS011;11634;42.734;23.298;2022-10-31T01:41:11;6.70;;;5.05;;
22937;SDS011;11634;42.734;23.298;2022-10-31T01:43:50;7.18;;;4.80;;
22937;SDS011;11634;42.734;23.298;2022-10-31T01:48:59;8.43;;;5.07;;
22937;SDS011;11634;42.734;23.298;2022-10-31T01:51:30;10.27;;;5.90;;
22937;SDS011;11634;42.734;23.298;2022-10-31T01:54:01;6.70;;;5.07;;
22937;SDS011;11634;42.734;23.298;2022-10-31T01:56:31;7.40;;;5.30;;
22937;SDS011;11634;42.734;23.298;2022-10-31T01:59:00;7.80;;;5.50;;
22937;SDS011;11634;42.734;23.298;2022-10-31T02:01:28;8.05;;;5.88;;
22937;SDS011;11634;42.734;23.298;2022-10-31T02:03:54;9.20;;;5.88;;
22937;SDS011;11634;42.734;23.298;2022-10-31T02:06:41;7.45;;;5.57;;
22937;SDS011;11634;42.734;23.298;2022-10-31T02:09:12;9.50;;;6.00;;
22937;SDS011;11634;42.734;23.298;2022-10-31T02:11:39;7.35;;;5.50;;
22937;SDS011;11634;42.734;23.298;2022-10-31T02:14:10;9.60;;;6.03;;
22937;SDS011;11634;42.734;23.298;2022-10-31T02:16:35;7.43;;;5.72;;
22937;SDS011;11634;42.734;23.298;2022-10-31T02:19:01;6.95;;;5.90;;
22937;SDS011;11634;42.734;23.298;2022-10-31T02:32:50;7.28;;;5.97;;
22937;SDS011;11634;42.734;23.298;2022-10-31T02:41:16;16.38;;;7.55;;
22937;SDS011;11634;42.734;23.298;2022-10-31T02:46:43;10.32;;;7.30;;
22937;SDS011;11634;42.734;23.298;2022-10-31T02:49:21;9.93;;;7.07;;
22937;SDS011;11634;42.734;23.298;2022-10-31T02:51:48;10.15;;;7.43;;
22937;SDS011;11634;42.734;23.298;2022-10-31T02:54:17;11.20;;;7.05;;
22937;SDS011;11634;42.734;23.298;2022-10-31T02:56:44;11.23;;;7.80;;
22937;SDS011;11634;42.734;23.298;2022-10-31T02:59:10;12.73;;;7.40;;
22937;SDS011;11634;42.734;23.298;2022-10-31T03:07:00;10.70;;;7.70;;
22937;SDS011;11634;42.734;23.298;2022-10-31T03:12:58;11.52;;;8.00;;
22937;SDS011;11634;42.734;23.298;2022-10-31T03:15:35;12.48;;;8.32;;
22937;SDS011;11634;42.734;23.298;2022-10-31T03:20:41;11.10;;;8.65;;
22937;SDS011;11634;42.734;23.298;2022-10-31T03:23:14;10.75;;;8.50;;
22937;SDS011;11634;42.734;23.298;2022-10-31T03:25:47;13.95;;;8.55;;
22937;SDS011;11634;42.734;23.298;2022-10-31T03:28:15;10.95;;;7.93;;
22937;SDS011;11634;42.734;23.298;2022-10-31T03:30:44;12.88;;;8.15;;
22937;SDS011;11634;42.734;23.298;2022-10-31T03:33:15;10.27;;;8.07;;
22937;SDS011;11634;42.734;23.298;2022-10-31T03:35:45;12.57;;;8.68;;
22937;SDS011;11634;42.734;23.298;2022-10-31T03:38:13;12.57;;;8.60;;
22937;SDS011;11634;42.734;23.298;2022-10-31T03:40:40;12.13;;;8.25;;
22937;SDS011;11634;42.734;23.298;2022-10-31T03:43:10;12.32;;;9.13;;
22937;SDS011;11634;42.734;23.298;2022-10-31T03:45:45;13.40;;;8.60;;
22937;SDS011;11634;42.734;23.298;2022-10-31T03:48:15;14.70;;;8.38;;
22937;SDS011;11634;42.734;23.298;2022-10-31T03:53:24;25.88;;;9.35;;
22937;SDS011;11634;42.734;23.298;2022-10-31T03:56:00;27.90;;;9.93;;
22937;SDS011;11634;42.734;23.298;2022-10-31T03:58:36;16.90;;;9.13;;
22937;SDS011;11634;42.734;23.298;2022-10-31T04:01:05;14.07;;;9.30;;
22937;SDS011;11634;42.734;23.298;2022-10-31T04:03:36;14.43;;;9.13;;
22937;SDS011;11634;42.734;23.298;2022-10-31T04:06:05;13.30;;;8.57;;
22937;SDS011;11634;42.734;23.298;2022-10-31T04:08:41;14.48;;;8.80;;
22937;SDS011;11634;42.734;23.298;2022-10-31T04:11:16;14.60;;;9.80;;
22937;SDS011;11634;42.734;23.298;2022-10-31T04:13:52;12.82;;;8.73;;
22937;SDS011;11634;42.734;23.298;2022-10-31T04:16:22;14.02;;;9.13;;
22937;SDS011;11634;42.734;23.298;2022-10-31T04:18:52;16.77;;;9.20;;
22937;SDS011;11634;42.734;23.298;2022-10-31T04:21:18;16.23;;;9.80;;
22937;SDS011;11634;42.734;23.298;2022-10-31T04:23:44;16.90;;;9.80;;
22937;SDS011;11634;42.734;23.298;2022-10-31T04:26:17;13.68;;;9.00;;
22937;SDS011;11634;42.734;23.298;2022-10-31T04:28:43;12.25;;;8.63;;
22937;SDS011;11634;42.734;23.298;2022-10-31T04:31:09;11.63;;;8.73;;
22937;SDS011;11634;42.734;23.298;2022-10-31T04:33:37;17.00;;;9.60;;
22937;SDS011;11634;42.734;23.298;2022-10-31T04:36:04;14.43;;;10.10;;
22937;SDS011;11634;42.734;23.298;2022-10-31T04:38:32;14.38;;;8.98;;
22937;SDS011;11634;42.734;23.298;2022-10-31T04:40:59;12.23;;;8.73;;
22937;SDS011;11634;42.734;23.298;2022-10-31T04:43:48;15.90;;;9.52;;
22937;SDS011;11634;42.734;23.298;2022-10-31T04:46:15;13.55;;;9.43;;
22937;SDS011;11634;42.734;23.298;2022-10-31T04:48:41;13.88;;;9.25;;
22937;SDS011;11634;42.734;23.298;2022-10-31T04:51:07;14.27;;;9.48;;
22937;SDS011;11634;42.734;23.298;2022-10-31T04:53:32;19.13;;;9.90;;
22937;SDS011;11634;42.734;23.298;2022-10-31T04:56:16;13.57;;;9.32;;
22937;SDS011;11634;42.734;23.298;2022-10-31T04:58:45;16.35;;;10.27;;
22937;SDS011;11634;42.734;23.298;2022-10-31T05:01:11;15.15;;;9.95;;
22937;SDS011;11634;42.734;23.298;2022-10-31T05:03:37;14.93;;;10.68;;
22937;SDS011;11634;42.734;23.298;2022-10-31T05:06:05;15.73;;;10.75;;
22937;SDS011;11634;42.734;23.298;2022-10-31T05:08:31;14.48;;;9.85;;
22937;SDS011;11634;42.734;23.298;2022-10-31T05:11:00;18.77;;;10.55;;
22937;SDS011;11634;42.734;23.298;2022-10-31T05:13:29;16.27;;;9.05;;
22937;SDS011;11634;42.734;23.298;2022-10-31T05:16:11;19.00;;;10.32;;
22937;SDS011;11634;42.734;23.298;2022-10-31T05:18:55;15.50;;;9.57;;
22937;SDS011;11634;42.734;23.298;2022-10-31T05:21:39;14.98;;;10.13;;
22937;SDS011;11634;42.734;23.298;2022-10-31T05:24:06;17.38;;;11.40;;
22937;SDS011;11634;42.734;23.298;2022-10-31T05:26:33;14.98;;;11.60;;
22937;SDS011;11634;42.734;23.298;2022-10-31T05:28:59;19.00;;;11.38;;
22937;SDS011;11634;42.734;23.298;2022-10-31T05:31:24;15.65;;;12.15;;
22937;SDS011;11634;42.734;23.298;2022-10-31T05:33:52;18.35;;;12.75;;
22937;SDS011;11634;42.734;23.298;2022-10-31T05:36:36;18.25;;;13.27;;
22937;SDS011;11634;42.734;23.298;2022-10-31T05:39:08;23.63;;;12.90;;
22937;SDS011;11634;42.734;23.298;2022-10-31T05:41:38;15.57;;;12.40;;
22937;SDS011;11634;42.734;23.298;2022-10-31T05:44:10;18.02;;;11.57;;
22937;SDS011;11634;42.734;23.298;2022-10-31T05:46:49;20.55;;;12.52;;
22937;SDS011;11634;42.734;23.298;2022-10-31T05:49:40;23.63;;;13.23;;
22937;SDS011;11634;42.734;23.298;2022-10-31T05:52:24;17.73;;;12.30;;
22937;SDS011;11634;42.734;23.298;2022-10-31T05:54:56;23.33;;;12.52;;
22937;SDS011;11634;42.734;23.298;2022-10-31T05:57:22;20.95;;;11.55;;
22937;SDS011;11634;42.734;23.298;2022-10-31T05:59:48;18.80;;;12.55;;
22937;SDS011;11634;42.734;23.298;2022-10-31T06:02:14;21.35;;;12.07;;
22937;SDS011;11634;42.734;23.298;2022-10-31T06:04:58;17.48;;;11.88;;
22937;SDS011;11634;42.734;23.298;2022-10-31T06:07:24;25.38;;;12.10;;
22937;SDS011;11634;42.734;23.298;2022-10-31T06:09:51;20.58;;;13.20;;
22937;SDS011;11634;42.734;23.298;2022-10-31T06:12:21;17.83;;;11.27;;
22937;SDS011;11634;42.734;23.298;2022-10-31T06:15:13;14.88;;;10.13;;
22937;SDS011;11634;42.734;23.298;2022-10-31T06:17:41;15.65;;;10.55;;
22937;SDS011;11634;42.734;23.298;2022-10-31T06:20:23;12.90;;;10.18;;
22937;SDS011;11634;42.734;23.298;2022-10-31T06:22:57;16.02;;;9.95;;
22937;SDS011;11634;42.734;23.298;2022-10-31T06:25:23;16.55;;;10.18;;
22937;SDS011;11634;42.734;23.298;2022-10-31T06:27:51;14.60;;;10.57;;
22937;SDS011;11634;42.734;23.298;2022-10-31T06:30:18;14.90;;;10.15;;
22937;SDS011;11634;42.734;23.298;2022-10-31T06:32:45;21.10;;;11.93;;
22937;SDS011;11634;42.734;23.298;2022-10-31T06:35:11;17.85;;;11.65;;
22937;SDS011;11634;42.734;23.298;2022-10-31T06:37:39;22.23;;;14.02;;
22937;SDS011;11634;42.734;23.298;2022-10-31T06:40:18;27.92;;;16.40;;
22937;SDS011;11634;42.734;23.298;2022-10-31T06:43:07;22.27;;;14.40;;
22937;SDS011;11634;42.734;23.298;2022-10-31T06:45:34;19.35;;;13.10;;
22937;SDS011;11634;42.734;23.298;2022-10-31T06:48:17;17.85;;;12.52;;
22937;SDS011;11634;42.734;23.298;2022-10-31T06:51:18;18.48;;;11.75;;
22937;SDS011;11634;42.734;23.298;2022-10-31T06:53:49;15.90;;;11.43;;
22937;SDS011;11634;42.734;23.298;2022-10-31T06:56:15;13.90;;;10.00;;
22937;SDS011;11634;42.734;23.298;2022-10-31T06:58:47;18.23;;;10.80;;
22937;SDS011;11634;42.734;23.298;2022-10-31T07:01:12;15.25;;;10.50;;
22937;SDS011;11634;42.734;23.298;2022-10-31T07:03:38;14.90;;;10.75;;
22937;SDS011;11634;42.734;23.298;2022-10-31T07:06:04;20.33;;;11.07;;
22937;SDS011;11634;42.734;23.298;2022-10-31T07:08:31;20.13;;;11.13;;
22937;SDS011;11634;42.734;23.298;2022-10-31T07:10:57;17.52;;;10.52;;
22937;SDS011;11634;42.734;23.298;2022-10-31T07:13:24;15.82;;;11.05;;
22937;SDS011;11634;42.734;23.298;2022-10-31T07:16:02;14.30;;;11.05;;
22937;SDS011;11634;42.734;23.298;2022-10-31T07:18:33;20.98;;;12.18;;
22937;SDS011;11634;42.734;23.298;2022-10-31T07:21:00;18.48;;;10.45;;
22937;SDS011;11634;42.734;23.298;2022-10-31T07:23:26;23.05;;;11.35;;
22937;SDS011;11634;42.734;23.298;2022-10-31T07:26:12;18.70;;;11.80;;
22937;SDS011;11634;42.734;23.298;2022-10-31T07:28:43;18.38;;;12.43;;
22937;SDS011;11634;42.734;23.298;2022-10-31T07:31:12;15.85;;;11.93;;
22937;SDS011;11634;42.734;23.298;2022-10-31T07:33:38;17.25;;;12.00;;
22937;SDS011;11634;42.734;23.298;2022-10-31T07:36:24;20.23;;;12.48;;
22937;SDS011;11634;42.734;23.298;2022-10-31T07:38:52;23.10;;;13.18;;
22937;SDS011;11634;42.734;23.298;2022-10-31T07:41:18;21.45;;;13.65;;
22937;SDS011;11634;42.734;23.298;2022-10-31T07:43:45;16.98;;;12.93;;
22937;SDS011;11634;42.734;23.298;2022-10-31T07:46:16;21.60;;;13.32;;
22937;SDS011;11634;42.734;23.298;2022-10-31T07:49:01;20.30;;;13.25;;
22937;SDS011;11634;42.734;23.298;2022-10-31T07:51:46;25.45;;;14.05;;
22937;SDS011;11634;42.734;23.298;2022-10-31T07:54:29;19.42;;;13.23;;
22937;SDS011;11634;42.734;23.298;2022-10-31T07:56:55;19.95;;;13.93;;
22937;SDS011;11634;42.734;23.298;2022-10-31T07:59:21;23.45;;;14.77;;
22937;SDS011;11634;42.734;23.298;2022-10-31T08:01:47;20.88;;;14.32;;
22937;SDS011;11634;42.734;23.298;2022-10-31T08:04:33;19.42;;;14.40;;
22937;SDS011;11634;42.734;23.298;2022-10-31T08:07:17;19.95;;;14.20;;
22937;SDS011;11634;42.734;23.298;2022-10-31T08:09:54;24.67;;;13.57;;
22937;SDS011;11634;42.734;23.298;2022-10-31T08:12:23;23.33;;;14.13;;
22937;SDS011;11634;42.734;23.298;2022-10-31T08:14:49;20.75;;;14.75;;
22937;SDS011;11634;42.734;23.298;2022-10-31T08:17:17;17.70;;;12.70;;
22937;SDS011;11634;42.734;23.298;2022-10-31T08:19:50;19.50;;;13.43;;
22937;SDS011;11634;42.734;23.298;2022-10-31T08:22:18;21.60;;;13.45;;
22937;SDS011;11634;42.734;23.298;2022-10-31T08:24:43;17.00;;;13.32;;
22937;SDS011;11634;42.734;23.298;2022-10-31T08:27:09;18.85;;;13.32;;
22937;SDS011;11634;42.734;23.298;2022-10-31T08:29:37;24.63;;;13.80;;
22937;SDS011;11634;42.734;23.298;2022-10-31T08:32:03;19.40;;;13.40;;
22937;SDS011;11634;42.734;23.298;2022-10-31T08:34:47;20.23;;;13.27;;
22937;SDS011;11634;42.734;23.298;2022-10-31T08:37:34;26.40;;;13.50;;
22937;SDS011;11634;42.734;23.298;2022-10-31T08:40:00;23.27;;;13.18;;
22937;SDS011;11634;42.734;23.298;2022-10-31T08:42:25;32.75;;;13.90;;
22937;SDS011;11634;42.734;23.298;2022-10-31T08:44:51;15.73;;;12.77;;
22937;SDS011;11634;42.734;23.298;2022-10-31T08:47:20;17.38;;;13.02;;
22937;SDS011;11634;42.734;23.298;2022-10-31T08:49:46;17.77;;;12.75;;
22937;SDS011;11634;42.734;23.298;2022-10-31T08:52:12;17.67;;;14.38;;
22937;SDS011;11634;42.734;23.298;2022-10-31T08:54:41;18.52;;;13.10;;
22937;SDS011;11634;42.734;23.298;2022-10-31T08:57:38;25.27;;;13.23;;
22937;SDS011;11634;42.734;23.298;2022-10-31T09:00:04;22.88;;;13.88;;
22937;SDS011;11634;42.734;23.298;2022-10-31T09:02:54;20.02;;;12.57;;
22937;SDS011;11634;42.734;23.298;2022-10-31T09:05:20;15.00;;;12.15;;
22937;SDS011;11634;42.734;23.298;2022-10-31T09:07:47;20.38;;;13.25;;
22937;SDS011;11634;42.734;23.298;2022-10-31T09:10:12;17.50;;;12.25;;
22937;SDS011;11634;42.734;23.298;2022-10-31T09:12:42;20.98;;;12.00;;
22937;SDS011;11634;42.734;23.298;2022-10-31T09:15:07;16.85;;;11.45;;
22937;SDS011;11634;42.734;23.298;2022-10-31T09:17:48;14.88;;;10.90;;
22937;SDS011;11634;42.734;23.298;2022-10-31T09:20:26;18.17;;;12.02;;
22937;SDS011;11634;42.734;23.298;2022-10-31T09:23:35;17.98;;;11.20;;
22937;SDS011;11634;42.734;23.298;2022-10-31T09:25:43;21.02;;;10.65;;
22937;SDS011;11634;42.734;23.298;2022-10-31T09:28:30;14.45;;;10.65;;
22937;SDS011;11634;42.734;23.298;2022-10-31T09:31:03;16.30;;;11.02;;
22937;SDS011;11634;42.734;23.298;2022-10-31T09:34:01;14.95;;;10.52;;
22937;SDS011;11634;42.734;23.298;2022-10-31T09:36:36;14.90;;;10.20;;
22937;SDS011;11634;42.734;23.298;2022-10-31T09:39:05;14.95;;;9.82;;
22937;SDS011;11634;42.734;23.298;2022-10-31T09:41:55;13.02;;;9.23;;
22937;SDS011;11634;42.734;23.298;2022-10-31T09:50:44;14.18;;;9.80;;
22937;SDS011;11634;42.734;23.298;2022-10-31T09:56:13;10.07;;;7.95;;
22937;SDS011;11634;42.734;23.298;2022-10-31T09:58:50;14.43;;;7.75;;
22937;SDS011;11634;42.734;23.298;2022-10-31T10:01:32;9.98;;;7.07;;
22937;SDS011;11634;42.734;23.298;2022-10-31T10:04:01;11.88;;;7.47;;
22937;SDS011;11634;42.734;23.298;2022-10-31T10:06:53;8.88;;;6.93;;
22937;SDS011;11634;42.734;23.298;2022-10-31T10:09:37;12.18;;;6.50;;
22937;SDS011;11634;42.734;23.298;2022-10-31T10:15:16;11.20;;;6.18;;
22937;SDS011;11634;42.734;23.298;2022-10-31T10:20:31;11.13;;;6.07;;
22937;SDS011;11634;42.734;23.298;2022-10-31T10:26:02;12.30;;;5.90;;
22937;SDS011;11634;42.734;23.298;2022-10-31T10:28:38;12.75;;;6.05;;
22937;SDS011;11634;42.734;23.298;2022-10-31T10:31:23;10.52;;;6.30;;
22937;SDS011;11634;42.734;23.298;2022-10-31T10:36:43;10.15;;;3.88;;
22937;SDS011;11634;42.734;23.298;2022-10-31T10:39:21;8.98;;;3.72;;
22937;SDS011;11634;42.734;23.298;2022-10-31T10:41:50;6.47;;;3.70;;
22937;SDS011;11634;42.734;23.298;2022-10-31T10:44:39;8.90;;;4.45;;
22937;SDS011;11634;42.734;23.298;2022-10-31T10:47:28;6.95;;;4.43;;
22937;SDS011;11634;42.734;23.298;2022-10-31T10:50:10;11.57;;;4.88;;
22937;SDS011;11634;42.734;23.298;2022-10-31T10:52:41;6.68;;;4.80;;
22937;SDS011;11634;42.734;23.298;2022-10-31T10:55:32;7.60;;;4.60;;
22937;SDS011;11634;42.734;23.298;2022-10-31T10:58:07;7.80;;;4.68;;
22937;SDS011;11634;42.734;23.298;2022-10-31T11:00:44;9.75;;;4.80;;
22937;SDS011;11634;42.734;23.298;2022-10-31T11:03:15;8.20;;;4.30;;
22937;SDS011;11634;42.734;23.298;2022-10-31T11:05:44;5.18;;;3.97;;
22937;SDS011;11634;42.734;23.298;2022-10-31T11:14:00;6.65;;;3.70;;
22937;SDS011;11634;42.734;23.298;2022-10-31T11:16:44;8.52;;;4.45;;
22937;SDS011;11634;42.734;23.298;2022-10-31T11:21:44;6.85;;;3.80;;
22937;SDS011;11634;42.734;23.298;2022-10-31T11:26:39;11.00;;;5.25;;
22937;SDS011;11634;42.734;23.298;2022-10-31T11:31:50;6.97;;;4.00;;
22937;SDS011;11634;42.734;23.298;2022-10-31T11:36:58;8.02;;;4.32;;
22937;SDS011;11634;42.734;23.298;2022-10-31T11:39:44;9.68;;;4.50;;
22937;SDS011;11634;42.734;23.298;2022-10-31T11:42:18;7.15;;;4.00;;
22937;SDS011;11634;42.734;23.298;2022-10-31T11:44:46;7.95;;;4.60;;
22937;SDS011;11634;42.734;23.298;2022-10-31T11:47:14;10.23;;;4.28;;
22937;SDS011;11634;42.734;23.298;2022-10-31T11:49:42;13.02;;;5.05;;
22937;SDS011;11634;42.734;23.298;2022-10-31T11:57:29;9.63;;;4.60;;
22937;SDS011;11634;42.734;23.298;2022-10-31T11:59:58;10.57;;;4.28;;
22937;SDS011;11634;42.734;23.298;2022-10-31T12:02:26;8.38;;;4.00;;
22937;SDS011;11634;42.734;23.298;2022-10-31T12:05:07;9.00;;;4.57;;
22937;SDS011;11634;42.734;23.298;2022-10-31T12:07:43;9.95;;;4.00;;
22937;SDS011;11634;42.734;23.298;2022-10-31T12:10:12;8.25;;;4.30;;
22937;SDS011;11634;42.734;23.298;2022-10-31T12:15:38;10.48;;;4.07;;
22937;SDS011;11634;42.734;23.298;2022-10-31T12:26:32;13.07;;;4.50;;
22937;SDS011;11634;42.734;23.298;2022-10-31T12:37:59;14.30;;;5.60;;
22937;SDS011;11634;42.734;23.298;2022-10-31T12:49:38;8.82;;;4.85;;
22937;SDS011;11634;42.734;23.298;2022-10-31T12:57:54;11.38;;;4.60;;
22937;SDS011;11634;42.734;23.298;2022-10-31T13:00:26;8.70;;;4.32;;
22937;SDS011;11634;42.734;23.298;2022-10-31T13:08:03;6.53;;;4.50;;
22937;SDS011;11634;42.734;23.298;2022-10-31T13:10:32;7.07;;;4.25;;
22937;SDS011;11634;42.734;23.298;2022-10-31T13:13:07;10.18;;;4.80;;
22937;SDS011;11634;42.734;23.298;2022-10-31T13:15:51;9.85;;;4.32;;
22937;SDS011;11634;42.734;23.298;2022-10-31T13:18:35;9.45;;;4.05;;
22937;SDS011;11634;42.734;23.298;2022-10-31T13:21:20;13.10;;;4.70;;
22937;SDS011;11634;42.734;23.298;2022-10-31T13:23:50;13.30;;;4.70;;
22937;SDS011;11634;42.734;23.298;2022-10-31T13:26:51;7.07;;;4.15;;
22937;SDS011;11634;42.734;23.298;2022-10-31T13:29:18;11.40;;;4.65;;
22937;SDS011;11634;42.734;23.298;2022-10-31T13:32:20;12.30;;;3.50;;
22937;SDS011;11634;42.734;23.298;2022-10-31T13:34:49;8.77;;;3.63;;
22937;SDS011;11634;42.734;23.298;2022-10-31T13:37:34;6.20;;;3.25;;
22937;SDS011;11634;42.734;23.298;2022-10-31T13:40:08;4.78;;;3.75;;
22937;SDS011;11634;42.734;23.298;2022-10-31T13:45:32;8.02;;;2.40;;
22937;SDS011;11634;42.734;23.298;2022-10-31T13:50:43;4.47;;;2.33;;
22937;SDS011;11634;42.734;23.298;2022-10-31T13:53:21;7.35;;;2.35;;
22937;SDS011;11634;42.734;23.298;2022-10-31T13:56:13;5.55;;;2.53;;
22937;SDS011;11634;42.734;23.298;2022-10-31T13:58:33;7.22;;;2.13;;
22937;SDS011;11634;42.734;23.298;2022-10-31T14:03:38;8.15;;;2.05;;
22937;SDS011;11634;42.734;23.298;2022-10-31T14:06:05;7.13;;;2.80;;
22937;SDS011;11634;42.734;23.298;2022-10-31T14:08:34;5.90;;;2.85;;
22937;SDS011;11634;42.734;23.298;2022-10-31T14:11:02;7.72;;;2.88;;
22937;SDS011;11634;42.734;23.298;2022-10-31T14:13:31;10.35;;;3.42;;
22937;SDS011;11634;42.734;23.298;2022-10-31T14:16:03;15.05;;;3.60;;
22937;SDS011;11634;42.734;23.298;2022-10-31T14:18:32;6.85;;;3.50;;
22937;SDS011;11634;42.734;23.298;2022-10-31T14:21:01;11.63;;;4.20;;
22937;SDS011;11634;42.734;23.298;2022-10-31T14:23:51;8.27;;;3.67;;
22937;SDS011;11634;42.734;23.298;2022-10-31T14:29:00;13.63;;;5.68;;
22937;SDS011;11634;42.734;23.298;2022-10-31T14:31:37;10.32;;;4.00;;
22937;SDS011;11634;42.734;23.298;2022-10-31T14:39:37;8.40;;;3.97;;
22937;SDS011;11634;42.734;23.298;2022-10-31T14:48:11;7.82;;;3.78;;
22937;SDS011;11634;42.734;23.298;2022-10-31T14:53:21;10.20;;;4.07;;
22937;SDS011;11634;42.734;23.298;2022-10-31T14:55:51;15.65;;;4.88;;
22937;SDS011;11634;42.734;23.298;2022-10-31T14:58:31;13.55;;;4.88;;
22937;SDS011;11634;42.734;23.298;2022-10-31T15:01:02;9.15;;;4.80;;
22937;SDS011;11634;42.734;23.298;2022-10-31T15:03:37;11.38;;;4.75;;
22937;SDS011;11634;42.734;23.298;2022-10-31T15:06:11;10.82;;;4.22;;
22937;SDS011;11634;42.734;23.298;2022-10-31T15:08:59;11.30;;;4.50;;
22937;SDS011;11634;42.734;23.298;2022-10-31T15:11:25;9.15;;;4.40;;
22937;SDS011;11634;42.734;23.298;2022-10-31T15:13:52;12.52;;;4.18;;
22937;SDS011;11634;42.734;23.298;2022-10-31T15:16:24;11.95;;;4.05;;
22937;SDS011;11634;42.734;23.298;2022-10-31T15:18:57;12.57;;;4.82;;
22937;SDS011;11634;42.734;23.298;2022-10-31T15:21:26;11.70;;;4.30;;
22937;SDS011;11634;42.734;23.298;2022-10-31T15:23:54;11.55;;;4.88;;
22937;SDS011;11634;42.734;23.298;2022-10-31T15:26:22;17.25;;;5.80;;
22937;SDS011;11634;42.734;23.298;2022-10-31T15:29:05;15.32;;;5.47;;
22937;SDS011;11634;42.734;23.298;2022-10-31T15:31:36;17.08;;;4.97;;
22937;SDS011;11634;42.734;23.298;2022-10-31T15:34:24;11.18;;;4.93;;
22937;SDS011;11634;42.734;23.298;2022-10-31T15:36:52;13.02;;;5.35;;
22937;SDS011;11634;42.734;23.298;2022-10-31T15:39:18;21.67;;;6.13;;
22937;SDS011;11634;42.734;23.298;2022-10-31T15:46:58;36.38;;;8.77;;
22937;SDS011;11634;42.734;23.298;2022-10-31T15:49:33;18.92;;;6.97;;
22937;SDS011;11634;42.734;23.298;2022-10-31T15:54:44;11.05;;;4.30;;
22937;SDS011;11634;42.734;23.298;2022-10-31T15:57:12;23.25;;;6.38;;
22937;SDS011;11634;42.734;23.298;2022-10-31T15:59:40;27.55;;;8.40;;
22937;SDS011;11634;42.734;23.298;2022-10-31T16:02:11;14.05;;;4.18;;
22937;SDS011;11634;42.734;23.298;2022-10-31T16:04:47;20.00;;;8.05;;
22937;SDS011;11634;42.734;23.298;2022-10-31T16:07:15;34.97;;;9.90;;
22937;SDS011;11634;42.734;23.298;2022-10-31T16:09:56;26.33;;;9.82;;
22937;SDS011;11634;42.734;23.298;2022-10-31T16:12:23;31.90;;;9.27;;
22937;SDS011;11634;42.734;23.298;2022-10-31T16:14:53;24.23;;;9.27;;
22937;SDS011;11634;42.734;23.298;2022-10-31T16:17:21;25.48;;;9.13;;
22937;SDS011;11634;42.734;23.298;2022-10-31T16:19:57;31.52;;;13.40;;
22937;SDS011;11634;42.734;23.298;2022-10-31T16:22:27;30.90;;;12.38;;
22937;SDS011;11634;42.734;23.298;2022-10-31T16:24:58;28.48;;;11.50;;
22937;SDS011;11634;42.734;23.298;2022-10-31T16:27:31;60.75;;;15.65;;
22937;SDS011;11634;42.734;23.298;2022-10-31T16:29:59;21.73;;;10.20;;
22937;SDS011;11634;42.734;23.298;2022-10-31T16:35:39;49.22;;;14.48;;
22937;SDS011;11634;42.734;23.298;2022-10-31T16:38:05;34.55;;;12.55;;
22937;SDS011;11634;42.734;23.298;2022-10-31T16:40:30;34.15;;;12.77;;
22937;SDS011;11634;42.734;23.298;2022-10-31T16:42:57;49.03;;;14.90;;
22937;SDS011;11634;42.734;23.298;2022-10-31T16:45:25;41.80;;;12.43;;
22937;SDS011;11634;42.734;23.298;2022-10-31T16:47:54;29.80;;;12.65;;
22937;SDS011;11634;42.734;23.298;2022-10-31T16:50:29;21.48;;;9.95;;
22937;SDS011;11634;42.734;23.298;2022-10-31T16:52:54;22.52;;;10.73;;
22937;SDS011;11634;42.734;23.298;2022-10-31T16:55:20;23.27;;;11.38;;
22937;SDS011;11634;42.734;23.298;2022-10-31T16:57:47;22.60;;;9.57;;
22937;SDS011;11634;42.734;23.298;2022-10-31T17:00:16;31.05;;;13.80;;
22937;SDS011;11634;42.734;23.298;2022-10-31T17:02:50;33.15;;;11.93;;
22937;SDS011;11634;42.734;23.298;2022-10-31T17:05:25;42.63;;;23.27;;
22937;SDS011;11634;42.734;23.298;2022-10-31T17:07:57;52.38;;;26.92;;
22937;SDS011;11634;42.734;23.298;2022-10-31T17:10:23;50.20;;;29.83;;
22937;SDS011;11634;42.734;23.298;2022-10-31T17:12:49;46.78;;;24.05;;
22937;SDS011;11634;42.734;23.298;2022-10-31T17:15:20;39.10;;;21.00;;
22937;SDS011;11634;42.734;23.298;2022-10-31T17:17:48;43.78;;;17.58;;
22937;SDS011;11634;42.734;23.298;2022-10-31T17:20:18;47.95;;;19.92;;
22937;SDS011;11634;42.734;23.298;2022-10-31T17:22:46;42.55;;;17.58;;
22937;SDS011;11634;42.734;23.298;2022-10-31T17:25:12;41.63;;;18.52;;